»·PEaware :: N902SQ KPHX-KRAL

N902SQ :: KPHX-KRAL

FLIGHT INFORMATION

Flight Status: Arrived
Operator: Privately registered:
United States
More flights under this callsign
Pilot: Gabor H. (24209)
Aircraft: SOCATA TBM-900
(TBM9)
More flights by this aircraft type
Origin: KPHX Phoenix Sky Harbor Intl
United States
Destination: KRAL Riverside Mun
United States
More flights between these airports :: More routes between these airports
Route: KEENS2 HRRBR J212 PSP SETER5
File this flight plan on PilotEdge
Remarks:
Altitude:
(Current/Filed)
26,000ft
Speed:
(Current/Filed)
310kts
Departed: 28-Nov-23 08:15 AM
Arrived: 28-Nov-23 09:24 AM
Distance/Time
Traveled:
273nm/1:09
Distance/Time
To Go:
Arrived

Flight Plot

Page will automatically refresh every two minutes.

Flight plan parsing failed; only flown route is shown


Map Options




Map Legend


Flown Route
Filed Route
Departure Airport
Arrival Airport
Navaid (VOR, NDB)
Fix

Horizontal Profiles

Position Reports

Time Latitude Longitude Heading Altitude Ground
Speed
28-Nov-23 07:58 33.425381 -112.020523 271 1112ft 0kts
28-Nov-23 07:59 33.425381 -112.020523 271 1112ft 0kts
28-Nov-23 08:00 33.425381 -112.020523 271 1112ft 0kts
28-Nov-23 08:01 33.425381 -112.020523 271 1112ft 0kts
28-Nov-23 08:02 33.425381 -112.020523 271 1112ft 0kts
28-Nov-23 08:03 33.425381 -112.020523 271 1112ft 0kts
28-Nov-23 08:04 33.425381 -112.020523 271 1112ft 0kts
28-Nov-23 08:05 33.425381 -112.020523 271 1112ft 0kts
28-Nov-23 08:06 33.425381 -112.020523 271 1112ft 0kts
28-Nov-23 08:07 33.425381 -112.020523 271 1112ft 0kts
28-Nov-23 08:08 33.425381 -112.020523 271 1112ft 0kts
28-Nov-23 08:09 33.425381 -112.020523 271 1112ft 0kts
28-Nov-23 08:10 33.426301 -112.021110 352 1112ft 3kts
28-Nov-23 08:11 33.427761 -112.023948 272 1112ft 14kts
28-Nov-23 08:12 33.427873 -112.026691 301 1109ft 0kts
28-Nov-23 08:13 33.428873 -112.026568 86 1109ft 15kts
28-Nov-23 08:14 33.429363 -111.996011 85 1912ft 144kts
28-Nov-23 08:15 33.431733 -111.944158 84 3856ft 165kts
28-Nov-23 08:16 33.434005 -111.893827 86 6519ft 153kts
28-Nov-23 08:17 33.413146 -111.854006 143 9020ft 157kts
28-Nov-23 08:18 33.375515 -111.850967 208 11493ft 159kts
28-Nov-23 08:19 33.352538 -111.891627 273 14036ft 173kts
28-Nov-23 08:20 33.357896 -111.948635 273 16541ft 176kts
28-Nov-23 08:21 33.363209 -112.005821 273 19037ft 178kts
28-Nov-23 08:22 33.371540 -112.064911 277 21565ft 184kts
28-Nov-23 08:23 33.380414 -112.124581 276 24063ft 183kts
28-Nov-23 08:24 33.389143 -112.183473 276 26216ft 189kts
28-Nov-23 08:25 33.399965 -112.257109 276 26230ft 251kts
28-Nov-23 08:26 33.412651 -112.343387 276 26221ft 271kts
28-Nov-23 08:27 33.425771 -112.433063 277 26213ft 276kts
28-Nov-23 08:28 33.439013 -112.524060 277 26208ft 278kts
28-Nov-23 08:29 33.450284 -112.615335 269 26208ft 276kts
28-Nov-23 08:30 33.451569 -112.707624 268 26212ft 277kts
28-Nov-23 08:31 33.453218 -112.799971 274 26199ft 279kts
28-Nov-23 08:32 33.469886 -112.891363 279 26211ft 281kts
28-Nov-23 08:33 33.486906 -112.982501 279 26210ft 281kts
28-Nov-23 08:34 33.503949 -113.074138 279 26210ft 282kts
28-Nov-23 08:35 33.520909 -113.165722 279 26209ft 282kts
28-Nov-23 08:36 33.537854 -113.257652 279 26209ft 282kts
28-Nov-23 08:37 33.554757 -113.349723 279 26208ft 283kts
28-Nov-23 08:38 33.571537 -113.441571 279 26208ft 283kts
28-Nov-23 08:39 33.588492 -113.534028 279 26208ft 284kts
28-Nov-23 08:40 33.605708 -113.626334 279 26218ft 284kts
28-Nov-23 08:41 33.622931 -113.719065 279 26233ft 285kts
28-Nov-23 08:42 33.640174 -113.812262 279 26239ft 286kts
28-Nov-23 08:43 33.657326 -113.905367 279 26238ft 286kts
28-Nov-23 08:44 33.674454 -113.998653 279 26238ft 286kts
28-Nov-23 08:45 33.691543 -114.092176 279 26238ft 287kts
28-Nov-23 08:46 33.708574 -114.185784 279 26237ft 287kts
28-Nov-23 08:47 33.725592 -114.279740 279 26237ft 287kts
28-Nov-23 08:48 33.742469 -114.373368 279 26236ft 287kts
28-Nov-23 08:49 33.759254 -114.466903 279 26235ft 286kts
28-Nov-23 08:50 33.773930 -114.560780 272 26237ft 285kts
28-Nov-23 08:51 33.779608 -114.656137 271 26237ft 285kts
28-Nov-23 08:52 33.785115 -114.751176 271 26239ft 286kts
28-Nov-23 08:53 33.790565 -114.846798 271 26239ft 286kts
28-Nov-23 08:54 33.795924 -114.942051 271 26238ft 286kts
28-Nov-23 08:55 33.801225 -115.037628 271 26239ft 287kts
28-Nov-23 08:56 33.806477 -115.133669 271 26238ft 287kts
28-Nov-23 08:57 33.811622 -115.229090 271 26235ft 287kts
28-Nov-23 08:58 33.816725 -115.325167 271 26224ft 288kts
28-Nov-23 08:59 33.821743 -115.421002 271 26213ft 288kts
28-Nov-23 09:00 33.826709 -115.517379 271 26208ft 288kts
28-Nov-23 09:01 33.831587 -115.613396 271 26208ft 288kts
28-Nov-23 09:02 33.836416 -115.709964 271 26212ft 289kts
28-Nov-23 09:03 33.841169 -115.806577 271 26212ft 289kts
28-Nov-23 09:04 33.845862 -115.903407 271 26211ft 290kts
28-Nov-23 09:05 33.850457 -115.999981 271 26211ft 290kts
28-Nov-23 09:06 33.855005 -116.097151 271 25959ft 298kts
28-Nov-23 09:07 33.859789 -116.201283 271 24270ft 318kts
28-Nov-23 09:08 33.864580 -116.307275 271 22573ft 316kts
28-Nov-23 09:09 33.869238 -116.412230 271 20904ft 312kts
28-Nov-23 09:10 33.874151 -116.515994 271 19260ft 307kts
28-Nov-23 09:11 33.879024 -116.619034 271 17620ft 303kts
28-Nov-23 09:12 33.883708 -116.719902 270 16027ft 298kts
28-Nov-23 09:13 33.888228 -116.819047 271 14459ft 295kts
28-Nov-23 09:14 33.892609 -116.916631 270 12942ft 293kts
28-Nov-23 09:15 33.896874 -117.013688 271 11145ft 285kts
28-Nov-23 09:16 33.872755 -117.099825 241 9328ft 276kts
28-Nov-23 09:17 33.847154 -117.185647 271 7486ft 280kts
28-Nov-23 09:18 33.850510 -117.278579 271 5678ft 270kts
28-Nov-23 09:19 33.887618 -117.343497 327 3965ft 211kts
28-Nov-23 09:20 33.929458 -117.369189 331 2172ft 135kts
28-Nov-23 09:21 33.945186 -117.397575 277 1635ft 105kts
28-Nov-23 09:22 33.950186 -117.432854 283 867ft 87kts
28-Nov-23 09:23 33.951201 -117.443736 154 818ft 6kts
28-Nov-23 09:24 33.950210 -117.442937 297 818ft 0kts
28-Nov-23 09:25 33.950203 -117.442922 297 818ft 0kts
28-Nov-23 09:26 33.950203 -117.442922 297 818ft 0kts
28-Nov-23 09:27 33.950203 -117.442922 297 818ft 0kts
28-Nov-23 09:28 33.950203 -117.442922 297 818ft 0kts
28-Nov-23 09:29 33.950203 -117.442922 297 818ft 0kts
28-Nov-23 09:30 33.950158 -117.442847 313 818ft 2kts
28-Nov-23 09:31 33.949923 -117.442625 348 818ft 0kts

Navigation Log

Ident Type
Flight plan parsing failed, navigation log unavailable